createdAt,value
2023-05-19T00:01:00.480Z,98155.00
2023-05-19T00:03:27.731Z,98151.40
2023-05-19T00:05:55.783Z,98154.20
2023-05-19T00:08:24.629Z,98156.20
2023-05-19T00:10:51.645Z,98156.80
2023-05-19T00:13:19.327Z,98158.20
2023-05-19T00:15:46.910Z,98159.00
2023-05-19T00:18:14.232Z,98151.60
2023-05-19T00:20:41.340Z,98148.40
2023-05-19T00:23:08.570Z,98150.60
2023-05-19T00:25:35.244Z,98150.80
2023-05-19T00:28:03.132Z,98146.20
2023-05-19T00:30:31.082Z,98142.60
2023-05-19T00:32:58.420Z,98138.00
2023-05-19T00:35:25.094Z,98139.20
2023-05-19T00:37:51.812Z,98136.60
2023-05-19T00:40:18.737Z,98136.00
2023-05-19T00:42:45.676Z,98135.00
2023-05-19T00:45:12.364Z,98135.00
2023-05-19T00:47:39.862Z,98131.00
2023-05-19T00:50:07.900Z,98130.60
2023-05-19T00:52:34.822Z,98130.40
2023-05-19T00:55:01.685Z,98133.40
2023-05-19T00:57:28.727Z,98133.00
2023-05-19T00:59:56.513Z,98129.00
2023-05-19T01:02:23.392Z,98119.80
2023-05-19T01:04:51.476Z,98111.60
2023-05-19T01:07:18.750Z,98111.20
2023-05-19T01:09:47.231Z,98107.80
2023-05-19T01:12:14.148Z,98108.00
2023-05-19T01:14:41.383Z,98110.00
2023-05-19T01:17:17.398Z,98107.20
2023-05-19T01:19:56.751Z,98108.60
2023-05-19T01:22:29.402Z,98105.40
2023-05-19T01:25:19.993Z,98106.40
2023-05-19T01:28:26.156Z,98103.20
2023-05-19T01:30:56.289Z,98101.40
2023-05-19T01:33:24.917Z,98099.60
2023-05-19T01:35:55.348Z,98097.60
2023-05-19T01:38:26.723Z,98097.40
2023-05-19T01:40:56.240Z,98100.00
2023-05-19T01:43:27.080Z,98097.00
2023-05-19T01:45:55.353Z,98092.00
2023-05-19T01:48:23.768Z,98090.20
2023-05-19T01:50:51.767Z,98093.20
2023-05-19T01:53:18.553Z,98093.20
2023-05-19T01:55:54.057Z,98092.40
2023-05-19T01:59:03.124Z,98094.00
2023-05-19T02:01:53.287Z,98088.00
2023-05-19T02:04:50.905Z,98092.20
2023-05-19T02:07:44.030Z,98092.60
2023-05-19T02:10:27.949Z,98086.60
2023-05-19T02:13:01.464Z,98084.00
2023-05-19T02:15:38.612Z,98080.20
2023-05-19T02:18:09.473Z,98080.40
2023-05-19T02:20:36.199Z,98081.80
2023-05-19T02:23:02.883Z,98079.80
2023-05-19T02:25:29.560Z,98082.20
2023-05-19T02:27:57.536Z,98081.00
2023-05-19T02:30:24.440Z,98085.00
2023-05-19T02:32:51.078Z,98080.80
2023-05-19T02:35:17.880Z,98080.40
2023-05-19T02:37:44.700Z,98078.40
2023-05-19T02:40:11.608Z,98078.80
2023-05-19T02:42:38.258Z,98080.60
2023-05-19T02:45:05.907Z,98078.20
2023-05-19T02:47:33.625Z,98078.40
2023-05-19T02:50:02.326Z,98077.40
2023-05-19T02:52:29.937Z,98073.80
2023-05-19T02:54:56.655Z,98077.60
2023-05-19T02:57:24.203Z,98074.60
2023-05-19T02:59:51.106Z,98073.80
2023-05-19T03:02:18.088Z,98075.20
2023-05-19T03:04:45.641Z,98077.00
2023-05-19T03:07:13.522Z,98072.60
2023-05-19T03:09:40.325Z,98069.80
2023-05-19T03:12:07.759Z,98069.00
2023-05-19T03:14:37.751Z,98066.80
2023-05-19T03:17:07.946Z,98064.40
2023-05-19T03:19:34.766Z,98068.40
2023-05-19T03:22:01.396Z,98064.40
2023-05-19T03:24:28.545Z,98064.40
2023-05-19T03:26:55.824Z,98059.80
2023-05-19T03:29:22.571Z,98059.40
2023-05-19T03:31:49.426Z,98059.00
2023-05-19T03:34:16.354Z,98058.40
2023-05-19T03:36:45.016Z,98056.40
2023-05-19T03:39:14.949Z,98059.20
2023-05-19T03:41:41.864Z,98056.00
2023-05-19T03:44:08.601Z,98055.60
2023-05-19T03:46:35.470Z,98051.40
2023-05-19T03:49:20.206Z,98055.60
2023-05-19T03:52:05.906Z,98052.20
2023-05-19T03:54:46.188Z,98056.00
2023-05-19T03:57:12.873Z,98054.20
2023-05-19T03:59:41.434Z,98054.20
2023-05-19T04:02:08.458Z,98054.60
2023-05-19T04:04:35.640Z,98049.80
2023-05-19T04:07:02.391Z,98056.20
2023-05-19T04:09:29.160Z,98056.40
2023-05-19T04:11:55.818Z,98054.40
2023-05-19T04:14:24.703Z,98050.40
2023-05-19T04:16:52.273Z,98051.20
2023-05-19T04:19:19.055Z,98050.40
2023-05-19T04:21:46.154Z,98051.80
2023-05-19T04:24:13.090Z,98048.80
2023-05-19T04:26:42.496Z,98049.20
2023-05-19T04:29:10.693Z,98048.40
2023-05-19T04:31:38.223Z,98049.60
2023-05-19T04:34:05.608Z,98049.60
2023-05-19T04:36:34.098Z,98050.60
2023-05-19T04:39:04.592Z,98052.00
2023-05-19T04:41:31.542Z,98057.40
2023-05-19T04:43:58.455Z,98056.80
2023-05-19T04:46:27.204Z,98054.60
2023-05-19T04:48:57.127Z,98051.80
2023-05-19T04:51:29.794Z,98047.20
2023-05-19T04:53:58.546Z,98045.40
2023-05-19T04:56:27.555Z,98013.20
2023-05-19T04:58:55.079Z,98010.80
2023-05-19T05:01:26.003Z,97999.80
2023-05-19T05:03:55.657Z,98004.60
2023-05-19T05:06:22.908Z,97999.60
2023-05-19T05:08:50.959Z,98019.00
2023-05-19T05:11:18.388Z,98031.00
2023-05-19T05:13:47.005Z,98038.20
2023-05-19T05:16:14.388Z,98030.20
2023-05-19T05:18:44.677Z,98025.80
2023-05-19T05:21:12.784Z,98020.40
2023-05-19T05:23:40.733Z,98022.60
2023-05-19T05:26:17.464Z,98032.80
2023-05-19T05:28:44.540Z,98035.00
2023-05-19T05:31:11.601Z,98032.00
2023-05-19T05:33:39.243Z,98034.60
2023-05-19T05:36:06.787Z,98031.00
2023-05-19T05:38:33.804Z,98026.80
2023-05-19T05:41:03.057Z,98025.00
2023-05-19T05:43:30.531Z,98026.60
2023-05-19T05:45:59.397Z,98028.60
2023-05-19T05:48:26.976Z,98025.20
2023-05-19T05:50:54.780Z,98025.40
2023-05-19T05:53:29.122Z,98030.20
2023-05-19T05:55:56.721Z,98026.40
2023-05-19T05:58:26.491Z,98031.40
2023-05-19T06:00:57.041Z,98032.00
2023-05-19T06:03:26.138Z,98035.80
2023-05-19T06:05:53.484Z,98033.00
2023-05-19T06:08:20.534Z,98032.00
2023-05-19T06:10:47.601Z,98035.40
2023-05-19T06:13:17.948Z,98038.60
2023-05-19T06:15:46.013Z,98040.40
2023-05-19T06:18:35.965Z,98034.80
2023-05-19T06:21:03.480Z,98035.20
2023-05-19T06:23:31.199Z,98038.00
2023-05-19T06:25:58.120Z,98036.80
2023-05-19T06:28:24.923Z,98032.40
2023-05-19T06:30:51.951Z,98031.40
2023-05-19T06:33:38.492Z,98032.00
2023-05-19T06:36:05.775Z,98035.60
2023-05-19T06:38:32.646Z,98031.80
2023-05-19T06:41:00.386Z,98033.60
2023-05-19T06:43:27.083Z,98033.60
2023-05-19T06:45:55.792Z,98034.60
2023-05-19T06:48:23.159Z,98031.00
2023-05-19T06:50:50.962Z,98034.60
2023-05-19T06:53:20.971Z,98034.60
2023-05-19T06:55:58.758Z,98029.80
2023-05-19T06:58:27.148Z,98033.60
2023-05-19T07:00:54.254Z,98028.00
2023-05-19T07:03:21.305Z,98034.20
2023-05-19T07:05:48.777Z,98032.20
2023-05-19T07:08:15.525Z,98036.60
2023-05-19T07:10:42.633Z,98035.20
2023-05-19T07:13:11.852Z,98033.20
2023-05-19T07:15:38.720Z,98030.20
2023-05-19T07:18:05.973Z,98032.20
2023-05-19T07:20:32.977Z,98030.20
2023-05-19T07:22:59.849Z,98032.20
2023-05-19T07:25:28.668Z,98030.60
2023-05-19T07:27:55.624Z,98024.40
2023-05-19T07:30:22.670Z,98022.60
2023-05-19T07:32:49.404Z,98018.20
2023-05-19T07:35:16.146Z,98018.20
2023-05-19T07:37:42.834Z,98016.80
2023-05-19T07:40:10.337Z,98008.20
2023-05-19T07:42:37.211Z,98004.20
2023-05-19T07:45:04.593Z,97996.40
2023-05-19T07:47:31.400Z,97995.20
2023-05-19T07:49:58.205Z,98003.00
2023-05-19T07:52:25.111Z,97999.40
2023-05-19T07:54:51.881Z,97994.00
2023-05-19T07:57:19.201Z,97991.20
2023-05-19T07:59:45.962Z,97989.40
2023-05-19T08:02:12.762Z,97988.80
2023-05-19T08:04:39.566Z,97989.80
2023-05-19T08:07:06.606Z,97990.20
2023-05-19T08:09:33.334Z,97984.00
2023-05-19T08:12:01.526Z,97982.60
2023-05-19T08:14:28.281Z,97982.80
2023-05-19T08:16:55.018Z,97989.60
2023-05-19T08:19:21.910Z,97981.20
2023-05-19T08:21:49.703Z,97987.60
2023-05-19T08:24:16.652Z,97981.20
2023-05-19T08:26:44.582Z,97984.00
2023-05-19T08:29:11.143Z,97982.00
2023-05-19T08:31:37.970Z,97980.00
2023-05-19T08:34:04.698Z,97982.40
2023-05-19T08:36:31.473Z,97970.20
2023-05-19T08:38:58.192Z,97976.40
2023-05-19T08:41:24.905Z,97976.20
2023-05-19T08:43:51.769Z,97974.60
2023-05-19T08:46:20.688Z,97966.80
2023-05-19T08:48:48.605Z,97974.60
2023-05-19T08:51:24.996Z,97976.40
2023-05-19T08:54:00.364Z,97971.00
2023-05-19T08:56:27.933Z,97966.80
2023-05-19T08:58:59.663Z,97966.20
2023-05-19T09:01:28.901Z,97969.00
2023-05-19T09:03:55.956Z,97971.40
2023-05-19T09:06:23.304Z,97967.00
2023-05-19T09:08:50.127Z,97964.40
2023-05-19T09:11:16.897Z,97968.80
2023-05-19T09:13:43.853Z,97961.60
2023-05-19T09:16:11.839Z,97956.60
2023-05-19T09:18:41.057Z,97958.80
2023-05-19T09:21:10.260Z,97959.00
2023-05-19T09:23:37.508Z,97955.00
2023-05-19T09:26:09.191Z,97961.00
2023-05-19T09:28:36.900Z,97960.20
2023-05-19T09:31:09.879Z,97954.40
2023-05-19T09:33:45.506Z,97953.40
2023-05-19T09:36:14.126Z,97950.20
2023-05-19T09:38:41.344Z,97946.80
2023-05-19T09:41:09.602Z,97940.20
2023-05-19T09:43:36.776Z,97936.80
2023-05-19T09:46:10.099Z,97937.00
2023-05-19T09:48:38.001Z,97932.20
2023-05-19T09:51:07.950Z,97925.40
2023-05-19T09:53:35.460Z,97925.40
2023-05-19T09:56:03.729Z,97920.00
2023-05-19T09:58:37.437Z,97921.40
2023-05-19T10:01:05.744Z,97920.00
2023-05-19T10:03:33.907Z,97914.00
2023-05-19T10:06:09.309Z,97910.00
2023-05-19T10:08:37.733Z,97912.40
2023-05-19T10:11:06.171Z,97911.80
2023-05-19T10:13:38.691Z,97905.20
2023-05-19T10:16:06.967Z,97906.40
2023-05-19T10:18:33.847Z,97904.20
2023-05-19T10:21:01.547Z,97909.00
2023-05-19T10:23:28.416Z,97901.40
2023-05-19T10:25:59.431Z,97899.60
2023-05-19T10:28:37.996Z,97903.80
2023-05-19T10:31:13.565Z,97891.00
2023-05-19T10:34:28.390Z,97891.20
2023-05-19T10:37:42.307Z,97891.60
2023-05-19T10:40:33.228Z,97889.20
2023-05-19T10:43:16.871Z,97885.60
2023-05-19T10:45:51.629Z,97884.40
2023-05-19T10:48:23.957Z,97875.40
2023-05-19T10:50:55.282Z,97879.40
2023-05-19T10:53:23.054Z,97876.60
2023-05-19T10:55:56.469Z,97877.60
2023-05-19T10:58:48.771Z,97870.20
2023-05-19T11:01:24.789Z,97873.40
2023-05-19T11:03:53.780Z,97865.20
2023-05-19T11:06:32.335Z,97860.80
2023-05-19T11:09:28.404Z,97868.40
2023-05-19T11:12:03.815Z,97857.60
2023-05-19T11:14:32.733Z,97859.20
2023-05-19T11:17:00.618Z,97853.00
2023-05-19T11:19:28.981Z,97849.20
2023-05-19T11:21:58.679Z,97856.40
2023-05-19T11:24:40.635Z,97855.80
2023-05-19T11:27:38.227Z,97857.80
2023-05-19T11:30:09.503Z,97858.80
2023-05-19T11:32:39.419Z,97853.80
2023-05-19T11:35:08.177Z,97853.00
2023-05-19T11:37:36.001Z,97846.20
2023-05-19T11:40:07.360Z,97849.80
2023-05-19T11:42:36.147Z,97851.80
2023-05-19T11:45:05.015Z,97853.00
2023-05-19T11:47:46.499Z,97857.80
2023-05-19T11:50:20.300Z,97850.20
2023-05-19T11:52:47.707Z,97854.40
2023-05-19T11:55:22.236Z,97856.40
2023-05-19T11:58:05.186Z,97846.80
2023-05-19T12:00:39.671Z,97848.40
2023-05-19T12:03:08.689Z,97851.20
2023-05-19T12:05:46.667Z,97841.60
2023-05-19T12:08:14.791Z,97835.20
2023-05-19T12:10:41.835Z,97837.60
2023-05-19T12:13:09.933Z,97830.20
2023-05-19T12:15:38.024Z,97825.20
2023-05-19T12:18:04.882Z,97821.00
2023-05-19T12:20:35.401Z,97820.80
2023-05-19T12:23:02.874Z,97831.00
2023-05-19T12:25:31.469Z,97826.80
2023-05-19T12:28:02.865Z,97825.00
2023-05-19T12:30:32.265Z,97826.40
2023-05-19T12:32:59.672Z,97822.60
2023-05-19T12:35:34.523Z,97819.40
2023-05-19T12:38:06.618Z,97824.00
2023-05-19T12:40:35.970Z,97821.80
2023-05-19T12:43:03.402Z,97825.00
2023-05-19T12:45:39.617Z,97823.80
2023-05-19T12:48:12.268Z,97821.80
2023-05-19T12:50:39.471Z,97818.00
2023-05-19T12:53:11.115Z,97814.40
2023-05-19T12:55:43.046Z,97816.40
2023-05-19T12:58:11.958Z,97810.00
2023-05-19T13:00:47.868Z,97814.80
2023-05-19T13:03:18.021Z,97811.00
2023-05-19T13:05:50.490Z,97798.60
2023-05-19T13:08:21.487Z,97799.40
2023-05-19T13:10:49.698Z,97795.20
2023-05-19T13:13:16.836Z,97784.40
2023-05-19T13:15:48.668Z,97796.20
2023-05-19T13:18:15.736Z,97792.40
2023-05-19T13:20:45.164Z,97792.20
2023-05-19T13:23:13.276Z,97793.40
2023-05-19T13:25:42.154Z,97783.60
2023-05-19T13:28:10.261Z,97778.20
2023-05-19T13:30:40.522Z,97774.80
2023-05-19T13:33:07.778Z,97770.00
2023-05-19T13:35:37.833Z,97770.40
2023-05-19T13:38:12.070Z,97769.00
2023-05-19T13:40:40.276Z,97775.40
2023-05-19T13:43:08.633Z,97774.40
2023-05-19T13:45:35.524Z,97780.80
2023-05-19T13:48:02.639Z,97777.80
2023-05-19T13:50:29.687Z,97771.80
2023-05-19T13:52:56.445Z,97773.00
2023-05-19T13:55:23.776Z,97762.60
2023-05-19T13:57:51.006Z,97760.80
2023-05-19T14:00:19.295Z,97759.60
2023-05-19T14:02:46.380Z,97761.40
2023-05-19T14:05:13.484Z,97757.60
2023-05-19T14:07:40.580Z,97765.00
2023-05-19T14:10:08.442Z,97764.60
2023-05-19T14:12:49.498Z,97770.00
2023-05-19T14:15:23.820Z,97764.80
2023-05-19T14:17:50.696Z,97753.60
2023-05-19T14:20:17.545Z,97756.60
2023-05-19T14:22:44.499Z,97747.00
2023-05-19T14:25:11.376Z,97746.40
2023-05-19T14:27:39.976Z,97751.00
2023-05-19T14:30:08.491Z,97744.80
2023-05-19T14:32:35.227Z,97745.60
2023-05-19T14:35:02.401Z,97748.40
2023-05-19T14:37:29.160Z,97750.20
2023-05-19T14:39:58.529Z,97748.80
2023-05-19T14:42:25.270Z,97756.80
2023-05-19T14:44:52.138Z,97753.60
2023-05-19T14:47:18.785Z,97753.60
2023-05-19T14:49:45.644Z,97757.20
2023-05-19T14:52:12.230Z,97754.40
2023-05-19T14:54:39.111Z,97760.60
2023-05-19T14:57:07.291Z,97769.80
2023-05-19T14:59:38.233Z,97767.20
2023-05-19T15:02:05.520Z,97768.40
2023-05-19T15:04:32.264Z,97772.40
2023-05-19T15:09:32.378Z,97771.20
2023-05-19T15:12:01.217Z,97777.20
2023-05-19T15:14:30.132Z,97776.20
2023-05-19T15:16:59.182Z,97778.20
2023-05-19T15:19:26.591Z,97774.60
2023-05-19T15:21:54.128Z,97770.00
2023-05-19T15:24:21.044Z,97777.60
2023-05-19T15:26:47.880Z,97774.00
2023-05-19T15:29:14.729Z,97772.40
2023-05-19T15:31:41.737Z,97769.20
2023-05-19T15:34:08.865Z,97774.00
2023-05-19T15:36:35.551Z,97775.20
2023-05-19T15:39:03.720Z,97773.40
2023-05-19T15:41:30.631Z,97780.20
2023-05-19T15:44:00.157Z,97782.20
2023-05-19T15:46:27.062Z,97777.20
2023-05-19T15:48:53.834Z,97774.80
2023-05-19T15:51:20.709Z,97770.80
2023-05-19T15:53:47.684Z,97770.60
2023-05-19T15:56:14.584Z,97776.60
2023-05-19T15:58:41.353Z,97774.00
2023-05-19T16:01:08.927Z,97780.40
2023-05-19T16:03:35.704Z,97776.40
2023-05-19T16:06:02.609Z,97780.20
2023-05-19T16:08:29.963Z,97774.80
2023-05-19T16:10:56.717Z,97774.00
2023-05-19T16:13:23.594Z,97772.40
2023-05-19T16:15:50.639Z,97773.40
2023-05-19T16:18:17.413Z,97774.60
2023-05-19T16:20:44.189Z,97775.80
2023-05-19T16:23:10.863Z,97769.80
2023-05-19T16:25:37.495Z,97770.80
2023-05-19T16:28:04.506Z,97775.40
2023-05-19T16:30:31.313Z,97768.60
2023-05-19T16:32:58.162Z,97770.00
2023-05-19T16:35:24.923Z,97773.00
2023-05-19T16:37:51.630Z,97771.60
2023-05-19T16:40:18.274Z,97769.80
2023-05-19T16:42:44.968Z,97763.00
2023-05-19T16:45:11.796Z,97759.60
2023-05-19T16:47:38.678Z,97760.40
2023-05-19T16:50:06.504Z,97758.40
2023-05-19T16:52:33.351Z,97764.00
2023-05-19T16:54:59.980Z,97763.00
2023-05-19T16:57:26.710Z,97755.00
2023-05-19T16:59:53.337Z,97755.40
2023-05-19T17:02:19.977Z,97755.80
2023-05-19T17:04:46.572Z,97755.20
2023-05-19T17:07:16.225Z,97763.00
2023-05-19T17:09:46.996Z,97765.40
2023-05-19T17:12:13.835Z,97761.40
2023-05-19T17:14:42.310Z,97763.60
2023-05-19T17:17:09.099Z,97761.00
2023-05-19T17:19:35.880Z,97763.00
2023-05-19T17:22:02.550Z,97760.00
2023-05-19T17:24:29.570Z,97765.20
2023-05-19T17:26:56.404Z,97766.80
2023-05-19T17:29:23.142Z,97768.80
2023-05-19T17:31:49.798Z,97770.60
2023-05-19T17:34:16.514Z,97767.60
2023-05-19T17:36:43.114Z,97758.40
2023-05-19T17:39:09.705Z,97766.80
2023-05-19T17:41:36.347Z,97772.60
2023-05-19T17:44:03.892Z,97772.40
2023-05-19T17:46:34.609Z,97767.60
2023-05-19T17:49:02.210Z,97772.60
2023-05-19T17:51:29.621Z,97771.60
2023-05-19T17:53:57.084Z,97772.60
2023-05-19T17:56:25.354Z,97773.40
2023-05-19T17:58:52.554Z,97769.60
2023-05-19T18:01:23.928Z,97773.00
2023-05-19T18:03:51.575Z,97768.40
2023-05-19T18:06:19.406Z,97770.60
2023-05-19T18:08:51.470Z,97769.80
2023-05-19T18:11:18.614Z,97769.60
2023-05-19T18:13:45.661Z,97769.40
2023-05-19T18:16:12.695Z,97771.60
2023-05-19T18:18:43.312Z,97767.80
2023-05-19T18:21:14.303Z,97765.40
2023-05-19T18:23:41.527Z,97775.20
2023-05-19T18:26:08.249Z,97774.00
2023-05-19T18:28:35.507Z,97776.40
2023-05-19T18:31:05.363Z,97776.80
2023-05-19T18:33:33.090Z,97772.40
2023-05-19T18:35:59.853Z,97777.40
2023-05-19T18:38:26.892Z,97786.60
2023-05-19T18:40:53.887Z,97782.20
2023-05-19T18:43:20.610Z,97782.00
2023-05-19T18:45:47.616Z,97780.60
2023-05-19T18:48:15.433Z,97781.00
2023-05-19T18:50:44.584Z,97785.20
2023-05-19T18:53:12.037Z,97787.20
2023-05-19T18:55:38.752Z,97789.40
2023-05-19T18:58:06.252Z,97787.60
2023-05-19T19:00:35.049Z,97792.40
2023-05-19T19:03:02.442Z,97801.20
2023-05-19T19:05:29.215Z,97803.60
2023-05-19T19:07:56.159Z,97804.80
2023-05-19T19:10:22.967Z,97808.00
2023-05-19T19:12:49.564Z,97812.00
2023-05-19T19:15:16.222Z,97820.20
2023-05-19T19:17:43.672Z,97820.20
2023-05-19T19:20:11.186Z,97822.40
2023-05-19T19:22:37.916Z,97825.80
2023-05-19T19:25:05.274Z,97826.00
2023-05-19T19:27:35.427Z,97831.80
2023-05-19T19:30:02.431Z,97833.20
2023-05-19T19:32:31.376Z,97831.40
2023-05-19T19:34:58.383Z,97838.40
2023-05-19T19:37:25.152Z,97839.60
2023-05-19T19:39:51.890Z,97839.80
2023-05-19T19:42:18.939Z,97836.80
2023-05-19T19:44:45.934Z,97841.00
2023-05-19T19:47:12.566Z,97847.20
2023-05-19T19:49:39.218Z,97851.00
2023-05-19T19:52:06.074Z,97848.40
2023-05-19T19:54:32.682Z,97850.60
2023-05-19T19:56:59.295Z,97849.20
2023-05-19T19:59:26.958Z,97850.20
2023-05-19T20:01:53.775Z,97852.00
2023-05-19T20:04:20.781Z,97846.40
2023-05-19T20:06:47.841Z,97851.60
2023-05-19T20:09:14.447Z,97854.40
2023-05-19T20:11:41.063Z,97859.40
2023-05-19T20:14:08.055Z,97859.20
2023-05-19T20:16:34.812Z,97858.60
2023-05-19T20:19:01.714Z,97862.20
2023-05-19T20:21:28.451Z,97865.80
2023-05-19T20:23:55.101Z,97868.40
2023-05-19T20:26:22.481Z,97873.40
2023-05-19T20:28:49.124Z,97868.80
2023-05-19T20:31:15.747Z,97871.20
2023-05-19T20:33:42.375Z,97873.40
2023-05-19T20:36:10.918Z,97878.80
2023-05-19T20:38:37.714Z,97876.00
2023-05-19T20:41:04.582Z,97871.40
2023-05-19T20:43:33.042Z,97872.80
2023-05-19T20:46:01.476Z,97870.80
2023-05-19T20:48:28.179Z,97870.80
2023-05-19T20:50:54.797Z,97863.00
2023-05-19T20:53:22.007Z,97866.20
2023-05-19T20:55:48.717Z,97869.80
2023-05-19T20:58:15.529Z,97877.40
2023-05-19T21:00:42.167Z,97873.60
2023-05-19T21:03:09.005Z,97873.60
2023-05-19T21:05:36.479Z,97875.40
2023-05-19T21:08:03.403Z,97875.40
2023-05-19T21:10:30.008Z,97878.60
2023-05-19T21:12:58.877Z,97872.60
2023-05-19T21:15:27.013Z,97874.80
2023-05-19T21:17:53.788Z,97867.40
2023-05-19T21:20:20.923Z,97868.60
2023-05-19T21:22:47.593Z,97866.40
2023-05-19T21:25:14.472Z,97869.20
2023-05-19T21:27:41.305Z,97872.40
2023-05-19T21:30:09.778Z,97864.20
2023-05-19T21:32:36.549Z,97864.60
2023-05-19T21:35:03.772Z,97858.20
2023-05-19T21:37:30.422Z,97863.80
2023-05-19T21:39:57.106Z,97858.80
2023-05-19T21:42:23.925Z,97859.20
2023-05-19T21:44:50.746Z,97857.00
2023-05-19T21:47:17.396Z,97851.60
2023-05-19T21:49:44.147Z,97844.20
2023-05-19T21:52:10.973Z,97845.20
2023-05-19T21:54:37.649Z,97848.40
2023-05-19T21:57:04.652Z,97850.40
2023-05-19T21:59:31.313Z,97853.40
2023-05-19T22:01:58.747Z,97852.80
2023-05-19T22:04:25.679Z,97853.80
2023-05-19T22:06:52.458Z,97851.80
2023-05-19T22:09:19.137Z,97853.00
2023-05-19T22:11:46.321Z,97846.60
2023-05-19T22:14:13.135Z,97853.20
2023-05-19T22:16:39.849Z,97857.20
2023-05-19T22:19:07.035Z,97857.00
2023-05-19T22:21:33.815Z,97848.60
2023-05-19T22:24:00.743Z,97849.00
2023-05-19T22:26:27.591Z,97844.80
2023-05-19T22:28:55.543Z,97845.00
2023-05-19T22:31:22.366Z,97841.60
2023-05-19T22:33:49.064Z,97843.60
2023-05-19T22:36:16.491Z,97834.60
2023-05-19T22:38:43.272Z,97838.20
2023-05-19T22:41:09.965Z,97842.80
2023-05-19T22:43:37.907Z,97840.20
2023-05-19T22:46:04.716Z,97838.80
2023-05-19T22:48:31.738Z,97836.20
2023-05-19T22:50:58.456Z,97833.00
2023-05-19T22:53:25.190Z,97832.60
2023-05-19T22:55:51.868Z,97837.20
2023-05-19T22:58:18.480Z,97832.20
2023-05-19T23:00:45.192Z,97827.00
2023-05-19T23:03:12.122Z,97822.00
2023-05-19T23:05:40.128Z,97821.40
2023-05-19T23:08:06.666Z,97810.40
2023-05-19T23:10:33.293Z,97809.60
2023-05-19T23:13:00.062Z,97808.80
2023-05-19T23:15:26.838Z,97806.80
2023-05-19T23:17:53.558Z,97799.80
2023-05-19T23:20:20.290Z,97799.40
2023-05-19T23:22:46.895Z,97796.00
2023-05-19T23:25:13.576Z,97803.60
2023-05-19T23:27:40.884Z,97806.80
2023-05-19T23:30:08.578Z,97809.40
2023-05-19T23:32:35.295Z,97814.60
2023-05-19T23:35:17.373Z,97815.80
2023-05-19T23:37:44.254Z,97817.00
2023-05-19T23:40:11.949Z,97813.00
2023-05-19T23:42:38.724Z,97803.40
2023-05-19T23:45:06.265Z,97804.80
2023-05-19T23:47:32.965Z,97801.60
2023-05-19T23:49:59.655Z,97801.20
2023-05-19T23:52:26.347Z,97792.40
2023-05-19T23:54:53.023Z,97797.80
2023-05-19T23:57:19.716Z,97802.20
2023-05-19T23:59:46.401Z,97807.40
